Etusivu
METAR-TAF:

METAR-TAF

Lentoasemat :

Aurora, Illinois, Yhdysvallat

Leveyspiiri: 41-46-12N, Pituuspiiri: 088-28-53W, korkeus merenpinnasta: 215 m

Tämänhetkinen sää

Tämä raportti tehtiin 39 minuuttia sitten, kello 10.52 UTC
Tuuli 17 kn pohjoisen/luoteesta puuskistuen 23 kn:hen
Lämpötila 3°C
Kosteus 81%
Ilmanpaine 1018 hPa
Näkyvyys: 11.3 km
Pilvistä 1600 ft:n korkeudessa

METAR: KARR 061052Z AUTO 34017G23KT 7SM OVC016 03/00 A3006 RMK AO2 PK WND 33027/1017 SLP184 T00280000

Aika: 05:31 (11:31 UTC)


TAF: puuttuu

Säähavainnot ja -ennusteet yli 4000 lentoasemalta (METAR- ja TAF-raportit).

Käytössä olevat sääasemat on merkitty karttaan keltaisilla ja punaisilla pisteillä.

Aseta hiiri pisteen päälle nähdäksesi sääaseman nimen.

Klikkaa sitten nähdäksesi säähavainnot ja -ennusteet.

Kartan vaihtaminen: klikkaa mustalla rastilla varustettuja vihreitä pisteitä, niin voit zoomata sisään; viivalla varustettua vihreää pistettä, niin voit zoomata ulos tai vihreitä nuolia, niin pääset viereisille kartoille.


METAR-TAF: